Grand Isle, LA

6:07 AM CST on December 27, 2014 (GMT -0600)
Port Fourchon Terminal | Change Station
CLOSE
Current Station
Airport
Location: Port Fourchon Terminal,
Elevation: 7 ft
Nearby Weather Stations
Active Advisory: Areal Flood Watch

Elev 7 ft 29.12 °N, 90.20 °W | Updated 12 minutes ago

Overcast
Overcast
70 °F
Feels Like 70 °F
N
12
Wind Variable Wind from ESE

Today
High -- | Low -- °F
--% Chance of Precip.
Yesterday
High -- | Low -- °F
Precip. -- in
6:52 AM 5:09 PM
Waxing Crescent, 36% visible
Pressure 30.13 in
Visibility 7.0 miles
Clouds Few 1200 ft
Mostly Cloudy 2100 ft
Overcast 2900 ft
Dew Point 66 °F
Humidity 88%
Rainfall 0.00 in
Snow Depth Not available.
UV 0 out of 12
Pollen 5.10 out of 12
Air Quality Not available.
Flu Activity Not available.
METAR KXPY 271155Z AUTO 12010KT 7SM FEW012 BKN021 OVC029 21/19 A3013 RMK A01

More Conditions Fewer Conditions

Pressure 30.13 in
Visibility 7.0 miles
Clouds Few 1200 ft
Mostly Cloudy 2100 ft
Overcast 2900 ft
Dew Point 66 °F
Humidity 88%
Rainfall 0.00 in
Snow Depth Not available.
UV 0 out of 12
Pollen 5.10 out of 12
Air Quality Not available.
Flu Activity Not available.
METAR KXPY 271155Z AUTO 12010KT 7SM FEW012 BKN021 OVC029 21/19 A3013 RMK A01

More Conditions Fewer Conditions

10-Day Weather Forecast

Almanac

Astronomy

Dec. 27, 2014 Rise Set
Actual Time
Civil Twilight
Nautical Twilight
Astronomical Twilight
Moon
Length of Visible Light
Length of Day
Tomorrow will be .
, % of the Moon is Illuminated

Today's Extremes

State Highs State Lows

Community

WunderPhotos

Upload Photos

1,780,885 photos uploaded!

WunderBlogs® & News

Nearby

Air Quality

  Air Quality AQ Index Pollutant
Not available.

Snow Depth

Station Depth Elevation

Earthquake Activity

City Distance Mag. Time & Date
Minimum magnitude displayed is 2.5.

Coastal Water Temperatures

Place Temperature

Nearby Weather Stations